createdAt,value
2019-01-25T00:00:52.149Z,73.31
2019-01-25T00:01:52.073Z,73.07
2019-01-25T00:02:52.024Z,72.96
2019-01-25T00:03:51.997Z,72.75
2019-01-25T00:04:51.999Z,72.75
2019-01-25T00:05:52.055Z,72.75
2019-01-25T00:06:51.874Z,72.86
2019-01-25T00:07:51.894Z,72.86
2019-01-25T00:08:51.804Z,72.86
2019-01-25T00:09:58.460Z,72.86
2019-01-25T00:10:51.770Z,72.75
2019-01-25T00:11:51.740Z,72.96
2019-01-25T00:12:51.651Z,73.17
2019-01-25T00:13:51.607Z,73.28
2019-01-25T00:14:51.570Z,73.28
2019-01-25T00:15:51.535Z,73.59
2019-01-25T00:16:51.581Z,73.38
2019-01-25T00:17:51.456Z,73.28
2019-01-25T00:18:51.465Z,73.17
2019-01-25T00:19:51.385Z,72.96
2019-01-25T00:20:51.366Z,73.07
2019-01-25T00:21:51.312Z,73.17
2019-01-25T00:22:51.269Z,72.86
2019-01-25T00:23:51.329Z,72.64
2019-01-25T00:24:51.227Z,72.47
2019-01-25T00:25:51.203Z,72.54
2019-01-25T00:26:51.144Z,72.86
2019-01-25T00:27:51.078Z,72.64
2019-01-25T00:28:51.102Z,72.33
2019-01-25T00:29:51.040Z,72.33
2019-01-25T00:30:51.012Z,72.22
2019-01-25T00:31:50.929Z,71.80
2019-01-25T00:32:50.894Z,71.91
2019-01-25T00:33:50.853Z,71.91
2019-01-25T00:34:50.855Z,71.80
2019-01-25T00:35:50.774Z,71.91
2019-01-25T00:36:50.753Z,71.91
2019-01-25T00:37:50.757Z,72.33
2019-01-25T00:38:50.662Z,72.22
2019-01-25T00:39:50.623Z,72.12
2019-01-25T00:40:50.634Z,72.33
2019-01-25T00:41:50.568Z,72.44
2019-01-25T00:42:50.512Z,72.22
2019-01-25T00:43:50.468Z,72.44
2019-01-25T00:44:50.435Z,72.22
2019-01-25T00:45:50.459Z,72.64
2019-01-25T00:46:50.363Z,72.86
2019-01-25T00:47:50.317Z,72.75
2019-01-25T00:48:50.282Z,72.86
2019-01-25T00:49:50.242Z,72.47
2019-01-25T00:50:50.259Z,72.47
2019-01-25T00:51:50.168Z,72.67
2019-01-25T00:52:50.137Z,72.78
2019-01-25T00:53:50.088Z,72.78
2019-01-25T00:54:50.058Z,72.89
2019-01-25T00:55:50.077Z,72.78
2019-01-25T00:56:49.983Z,72.99
2019-01-25T00:57:49.935Z,72.89
2019-01-25T00:58:49.900Z,72.78
2019-01-25T00:59:49.860Z,72.78
2019-01-25T01:00:49.866Z,72.36
2019-01-25T01:01:49.855Z,72.15
2019-01-25T01:02:49.747Z,72.05
2019-01-25T01:03:49.707Z,72.47
2019-01-25T01:04:49.674Z,72.47
2019-01-25T01:05:49.633Z,72.67
2019-01-25T01:06:49.642Z,72.92
2019-01-25T01:07:49.598Z,72.78
2019-01-25T01:08:49.574Z,73.24
2019-01-25T01:09:49.478Z,73.13
2019-01-25T01:10:49.443Z,73.73
2019-01-25T01:11:49.404Z,73.13
2019-01-25T01:12:49.421Z,73.31
2019-01-25T01:13:49.391Z,73.45
2019-01-25T01:14:49.294Z,73.24
2019-01-25T01:15:49.256Z,73.31
2019-01-25T01:16:49.214Z,73.10
2019-01-25T01:17:49.182Z,73.76
2019-01-25T01:18:49.184Z,73.55
2019-01-25T01:19:49.103Z,73.73
2019-01-25T01:20:49.073Z,73.94
2019-01-25T01:21:49.030Z,74.15
2019-01-25T01:22:48.987Z,73.83
2019-01-25T01:23:49.702Z,73.94
2019-01-25T01:24:48.909Z,73.73
2019-01-25T01:25:48.872Z,73.83
2019-01-25T01:26:48.836Z,73.94
2019-01-25T01:27:48.796Z,73.63
2019-01-25T01:28:48.812Z,74.26
2019-01-25T01:29:48.721Z,74.26
2019-01-25T01:30:48.683Z,74.26
2019-01-25T01:31:48.645Z,74.05
2019-01-25T01:32:48.605Z,74.15
2019-01-25T01:33:48.668Z,74.68
2019-01-25T01:34:48.529Z,74.57
2019-01-25T01:35:48.496Z,74.15
2019-01-25T01:36:48.491Z,74.26
2019-01-25T01:37:48.461Z,74.01
2019-01-25T01:38:48.384Z,74.01
2019-01-25T01:39:48.336Z,74.54
2019-01-25T01:40:48.360Z,74.12
2019-01-25T01:41:48.263Z,74.65
2019-01-25T01:42:48.225Z,74.43
2019-01-25T01:43:48.187Z,74.12
2019-01-25T01:44:48.148Z,74.22
2019-01-25T01:45:48.169Z,74.26
2019-01-25T01:46:48.070Z,74.05
2019-01-25T01:47:48.041Z,74.26
2019-01-25T01:48:48.027Z,74.37
2019-01-25T01:49:47.960Z,74.57
2019-01-25T01:50:47.957Z,74.37
2019-01-25T01:51:47.909Z,75.31
2019-01-25T01:52:47.850Z,75.21
2019-01-25T01:53:47.816Z,74.89
2019-01-25T01:54:47.768Z,74.99
2019-01-25T01:55:47.777Z,74.99
2019-01-25T01:56:47.698Z,74.79
2019-01-25T01:57:47.803Z,75.31
2019-01-25T01:58:47.617Z,75.31
2019-01-25T01:59:47.579Z,75.52
2019-01-25T02:00:47.542Z,74.99
2019-01-25T02:01:47.508Z,74.99
2019-01-25T02:02:47.510Z,75.52
2019-01-25T02:03:47.427Z,75.42
2019-01-25T02:04:47.387Z,75.52
2019-01-25T02:05:47.350Z,75.42
2019-01-25T02:06:47.368Z,75.21
2019-01-25T02:07:47.278Z,75.21
2019-01-25T02:08:47.233Z,75.42
2019-01-25T02:09:47.203Z,75.31
2019-01-25T02:10:47.166Z,75.21
2019-01-25T02:11:47.163Z,74.99
2019-01-25T02:12:47.085Z,75.10
2019-01-25T02:13:47.057Z,75.21
2019-01-25T02:14:47.101Z,75.31
2019-01-25T02:15:46.973Z,75.52
2019-01-25T02:16:46.950Z,75.42
2019-01-25T02:17:46.946Z,74.99
2019-01-25T02:18:46.853Z,75.45
2019-01-25T02:19:46.819Z,75.76
2019-01-25T02:20:46.911Z,76.36
2019-01-25T02:21:46.744Z,76.29
2019-01-25T02:22:46.745Z,76.47
2019-01-25T02:23:47.202Z,76.15
2019-01-25T02:24:47.201Z,76.15
2019-01-25T02:25:46.591Z,75.98
2019-01-25T02:26:46.584Z,76.08
2019-01-25T02:27:46.556Z,76.78
2019-01-25T02:28:46.526Z,76.61
2019-01-25T02:29:46.433Z,75.98
2019-01-25T02:30:46.407Z,76.29
2019-01-25T02:31:46.359Z,76.40
2019-01-25T02:32:46.323Z,75.56
2019-01-25T02:33:46.330Z,76.64
2019-01-25T02:34:46.247Z,76.82
2019-01-25T02:35:46.205Z,76.92
2019-01-25T02:36:46.166Z,76.64
2019-01-25T02:37:46.154Z,76.72
2019-01-25T02:38:46.141Z,76.61
2019-01-25T02:39:46.059Z,76.64
2019-01-25T02:40:46.032Z,76.86
2019-01-25T02:41:45.978Z,77.28
2019-01-25T02:42:45.950Z,77.38
2019-01-25T02:43:45.964Z,77.70
2019-01-25T02:44:45.864Z,78.22
2019-01-25T02:45:45.825Z,77.91
2019-01-25T02:46:45.784Z,78.02
2019-01-25T02:47:45.753Z,78.44
2019-01-25T02:48:45.753Z,78.54
2019-01-25T02:49:45.679Z,78.33
2019-01-25T02:50:45.638Z,78.44
2019-01-25T02:51:45.615Z,78.33
2019-01-25T02:52:45.604Z,78.33
2019-01-25T02:53:45.519Z,78.44
2019-01-25T02:54:45.479Z,78.33
2019-01-25T02:55:45.518Z,78.44
2019-01-25T02:56:45.403Z,78.54
2019-01-25T02:57:45.412Z,78.44
2019-01-25T02:58:45.332Z,78.44
2019-01-25T02:59:45.289Z,77.91
2019-01-25T03:00:45.304Z,78.02
2019-01-25T03:01:45.218Z,78.44
2019-01-25T03:02:45.174Z,78.54
2019-01-25T03:03:45.135Z,78.44
2019-01-25T03:04:45.101Z,78.33
2019-01-25T03:05:45.107Z,78.54
2019-01-25T03:06:45.021Z,78.54
2019-01-25T03:07:45.029Z,78.33
2019-01-25T03:08:46.637Z,78.86
2019-01-25T03:09:44.915Z,78.96
2019-01-25T03:10:47.257Z,78.75
2019-01-25T03:11:44.830Z,79.07
2019-01-25T03:12:44.790Z,79.28
2019-01-25T03:13:44.758Z,79.49
2019-01-25T03:14:44.711Z,79.28
2019-01-25T03:15:44.730Z,78.75
2019-01-25T03:16:44.643Z,78.86
2019-01-25T03:17:44.617Z,79.38
2019-01-25T03:18:44.563Z,79.38
2019-01-25T03:19:44.521Z,79.07
2019-01-25T03:20:44.534Z,80.02
2019-01-25T03:21:44.447Z,79.95
2019-01-25T03:22:44.406Z,79.70
2019-01-25T03:23:44.373Z,80.02
2019-01-25T03:24:44.336Z,79.70
2019-01-25T03:25:44.348Z,79.32
2019-01-25T03:26:44.253Z,80.02
2019-01-25T03:27:44.341Z,80.05
2019-01-25T03:28:44.177Z,79.91
2019-01-25T03:29:44.146Z,80.23
2019-01-25T03:30:44.104Z,79.17
2019-01-25T03:31:44.066Z,79.91
2019-01-25T03:32:44.094Z,79.60
2019-01-25T03:33:43.994Z,79.28
2019-01-25T03:34:43.954Z,79.49
2019-01-25T03:35:43.932Z,79.60
2019-01-25T03:36:43.930Z,79.32
2019-01-25T03:37:43.836Z,79.53
2019-01-25T03:38:43.798Z,79.42
2019-01-25T03:39:43.801Z,79.91
2019-01-25T03:40:43.722Z,79.84
2019-01-25T03:41:43.680Z,80.16
2019-01-25T03:42:43.651Z,79.91
2019-01-25T03:43:43.604Z,80.37
2019-01-25T03:44:43.629Z,80.27
2019-01-25T03:45:43.529Z,80.47
2019-01-25T03:46:43.489Z,81.11
2019-01-25T03:47:43.509Z,81.01
2019-01-25T03:48:43.425Z,81.32
2019-01-25T03:49:43.373Z,81.43
2019-01-25T03:50:43.377Z,81.32
2019-01-25T03:51:43.303Z,81.63
2019-01-25T03:52:43.268Z,81.63
2019-01-25T03:53:43.221Z,81.67
2019-01-25T03:54:43.222Z,81.53
2019-01-25T03:55:43.142Z,81.99
2019-01-25T03:56:43.115Z,82.45
2019-01-25T03:57:43.066Z,82.52
2019-01-25T03:58:43.047Z,82.41
2019-01-25T03:59:43.033Z,82.52
2019-01-25T04:00:43.005Z,82.45
2019-01-25T04:01:42.916Z,82.34
2019-01-25T04:02:42.874Z,82.66
2019-01-25T04:03:42.839Z,82.98
2019-01-25T04:04:42.799Z,83.29
2019-01-25T04:05:42.810Z,83.54
2019-01-25T04:06:43.706Z,83.54
2019-01-25T04:07:42.680Z,83.23
2019-01-25T04:08:42.661Z,83.54
2019-01-25T04:09:42.611Z,84.17
2019-01-25T04:10:42.753Z,84.14
2019-01-25T04:11:42.570Z,83.97
2019-01-25T04:12:42.493Z,83.54
2019-01-25T04:13:42.447Z,84.07
2019-01-25T04:14:42.521Z,84.17
2019-01-25T04:15:42.367Z,83.86
2019-01-25T04:16:42.427Z,84.39
2019-01-25T04:18:58.854Z,84.91
2019-01-25T04:19:58.794Z,84.91
2019-01-25T04:20:58.750Z,85.23
2019-01-25T04:21:58.757Z,85.44
2019-01-25T04:22:58.686Z,85.55
2019-01-25T04:23:58.632Z,85.44
2019-01-25T04:24:58.594Z,85.44
2019-01-25T04:25:58.571Z,84.60
2019-01-25T04:26:58.577Z,84.28
2019-01-25T04:27:58.538Z,84.28
2019-01-25T04:28:58.437Z,83.86
2019-01-25T04:29:58.402Z,84.28
2019-01-25T04:30:58.361Z,84.60
2019-01-25T04:31:58.320Z,84.28
2019-01-25T04:32:58.324Z,84.49
2019-01-25T04:33:58.252Z,84.39
2019-01-25T04:34:58.209Z,84.53
2019-01-25T04:35:58.168Z,84.64
2019-01-25T04:36:58.183Z,85.06
2019-01-25T04:37:58.093Z,84.64
2019-01-25T04:38:58.049Z,85.48
2019-01-25T04:39:58.014Z,85.48
2019-01-25T04:40:58.018Z,85.27
2019-01-25T04:41:57.981Z,84.84
2019-01-25T04:42:57.934Z,85.69
2019-01-25T04:43:57.897Z,85.66
2019-01-25T04:44:57.819Z,85.80
2019-01-25T04:45:57.780Z,84.70
2019-01-25T04:46:57.738Z,85.76
2019-01-25T04:47:57.746Z,85.76
2019-01-25T04:48:57.664Z,85.02
2019-01-25T04:49:57.670Z,84.91
2019-01-25T04:50:57.587Z,85.13
2019-01-25T04:51:57.547Z,85.44
2019-01-25T04:52:57.508Z,84.91
2019-01-25T04:53:57.506Z,84.70
2019-01-25T04:54:57.429Z,85.41
2019-01-25T04:55:57.393Z,85.44
2019-01-25T04:56:57.397Z,84.67
2019-01-25T04:57:57.313Z,84.91
2019-01-25T04:58:57.318Z,84.07
2019-01-25T04:59:57.232Z,84.49
2019-01-25T05:00:57.194Z,84.91
2019-01-25T05:01:57.207Z,84.88
2019-01-25T05:02:57.183Z,84.56
2019-01-25T05:03:57.080Z,84.07
2019-01-25T05:04:57.041Z,84.49
2019-01-25T05:05:57.001Z,85.02
2019-01-25T05:06:57.001Z,85.55
2019-01-25T05:07:56.981Z,85.34
2019-01-25T05:08:56.932Z,85.41
2019-01-25T05:09:56.846Z,85.30
2019-01-25T05:10:56.807Z,84.77
2019-01-25T05:11:56.771Z,85.19
2019-01-25T05:12:56.730Z,85.19
2019-01-25T05:13:56.746Z,85.51
2019-01-25T05:14:56.655Z,84.67
2019-01-25T05:15:56.619Z,84.77
2019-01-25T05:16:56.587Z,85.30
2019-01-25T05:17:56.540Z,85.51
2019-01-25T05:18:56.544Z,85.51
2019-01-25T05:19:56.463Z,85.41
2019-01-25T05:20:56.419Z,85.51
2019-01-25T05:21:56.420Z,84.88
2019-01-25T05:22:56.342Z,84.24
2019-01-25T05:23:56.309Z,84.14
2019-01-25T05:24:56.303Z,84.45
2019-01-25T05:25:56.230Z,84.00
2019-01-25T05:26:56.193Z,84.00
2019-01-25T05:27:56.212Z,83.89
2019-01-25T05:28:56.107Z,84.20
2019-01-25T05:29:56.073Z,84.20
2019-01-25T05:30:56.037Z,83.68
2019-01-25T05:31:56.034Z,83.78
2019-01-25T05:32:55.954Z,83.68
2019-01-25T05:33:55.966Z,84.10
2019-01-25T05:34:55.920Z,83.78
2019-01-25T05:35:55.841Z,83.57
2019-01-25T05:36:55.809Z,83.36
2019-01-25T05:37:55.818Z,83.15
2019-01-25T05:38:55.786Z,83.15
2019-01-25T05:39:56.055Z,83.89
2019-01-25T05:40:55.649Z,83.89
2019-01-25T05:41:55.605Z,83.68
2019-01-25T05:42:55.613Z,83.57
2019-01-25T05:43:55.547Z,83.57
2019-01-25T05:44:55.556Z,84.10
2019-01-25T05:45:55.458Z,84.20
2019-01-25T05:46:55.426Z,83.89
2019-01-25T05:47:55.379Z,84.00
2019-01-25T05:48:55.357Z,83.57
2019-01-25T05:49:55.350Z,84.00
2019-01-25T05:50:55.261Z,83.85
2019-01-25T05:51:55.238Z,83.75
2019-01-25T05:52:55.235Z,83.78
2019-01-25T05:53:55.162Z,84.10
2019-01-25T05:54:55.175Z,84.00
2019-01-25T05:55:55.078Z,83.78
2019-01-25T05:56:55.038Z,83.57
2019-01-25T05:57:54.991Z,83.68
2019-01-25T05:58:54.954Z,84.10
2019-01-25T05:59:54.958Z,83.68
2019-01-25T06:00:54.899Z,83.68
2019-01-25T06:01:54.842Z,83.68
2019-01-25T06:02:54.802Z,83.89
2019-01-25T06:03:54.757Z,83.68
2019-01-25T06:04:54.805Z,84.00
2019-01-25T06:05:54.686Z,83.89
2019-01-25T06:06:54.649Z,84.20
2019-01-25T06:07:54.610Z,83.57
2019-01-25T06:08:54.573Z,84.00
2019-01-25T06:09:54.569Z,83.57
2019-01-25T06:10:55.050Z,84.03
2019-01-25T06:11:54.449Z,84.24
2019-01-25T06:12:54.420Z,84.45
2019-01-25T06:13:54.372Z,84.67
2019-01-25T06:14:54.427Z,84.81
2019-01-25T06:15:54.357Z,85.61
2019-01-25T06:16:54.309Z,85.61
2019-01-25T06:17:54.218Z,85.51
2019-01-25T06:18:54.178Z,85.97
2019-01-25T06:19:54.145Z,84.91
2019-01-25T06:20:54.145Z,85.76
2019-01-25T06:21:54.104Z,85.41
2019-01-25T06:22:54.034Z,85.66
2019-01-25T06:23:53.982Z,85.66
2019-01-25T06:24:53.943Z,85.76
2019-01-25T06:25:53.991Z,86.08
2019-01-25T06:26:54.889Z,85.76
2019-01-25T06:27:53.835Z,86.18
2019-01-25T06:28:53.791Z,86.18
2019-01-25T06:29:53.777Z,86.15
2019-01-25T06:30:54.781Z,85.83
2019-01-25T06:31:53.674Z,85.55
2019-01-25T06:32:53.637Z,86.18
2019-01-25T06:33:53.611Z,86.18
2019-01-25T06:34:53.567Z,86.60
2019-01-25T06:35:53.520Z,86.60
2019-01-25T06:36:53.533Z,86.71
2019-01-25T06:37:53.442Z,86.96
2019-01-25T06:38:53.401Z,87.13
2019-01-25T06:39:53.360Z,86.92
2019-01-25T06:40:53.318Z,86.92
2019-01-25T06:41:53.326Z,86.92
2019-01-25T06:42:53.241Z,86.92
2019-01-25T06:43:53.211Z,86.82
2019-01-25T06:44:53.164Z,87.03
2019-01-25T06:45:53.125Z,86.71
2019-01-25T06:46:53.135Z,87.13
2019-01-25T06:47:53.096Z,87.34
2019-01-25T06:48:53.004Z,87.24
2019-01-25T06:49:52.967Z,87.24
2019-01-25T06:50:53.014Z,87.24
2019-01-25T06:51:52.939Z,87.03
2019-01-25T06:52:52.848Z,87.45
2019-01-25T06:53:52.819Z,86.82
2019-01-25T06:54:52.780Z,87.03
2019-01-25T06:55:52.734Z,87.03
2019-01-25T06:56:52.737Z,86.92
2019-01-25T06:57:52.704Z,86.99
2019-01-25T06:58:52.618Z,86.82
2019-01-25T06:59:52.575Z,87.03
2019-01-25T07:00:52.538Z,86.82
2019-01-25T07:01:52.544Z,86.67
2019-01-25T07:02:52.504Z,87.13
2019-01-25T07:03:52.423Z,87.03
2019-01-25T07:04:52.386Z,87.20
2019-01-25T07:05:52.346Z,86.60
2019-01-25T07:06:52.341Z,86.60
2019-01-25T07:07:52.313Z,86.15
2019-01-25T07:08:52.269Z,85.93
2019-01-25T07:09:52.190Z,85.86
2019-01-25T07:10:52.194Z,85.86
2019-01-25T07:11:52.135Z,85.66
2019-01-25T07:12:52.097Z,85.66
2019-01-25T07:13:52.103Z,85.48
2019-01-25T07:14:52.049Z,85.91
2019-01-25T07:15:51.959Z,86.11
2019-01-25T07:16:51.914Z,85.80
2019-01-25T07:17:52.489Z,86.01
2019-01-25T07:18:51.836Z,85.84
2019-01-25T07:19:51.843Z,86.05
2019-01-25T07:20:51.791Z,86.16
2019-01-25T07:21:52.486Z,86.68
2019-01-25T07:22:51.691Z,87.21
2019-01-25T07:23:51.633Z,87.32
2019-01-25T07:24:57.088Z,86.72
2019-01-25T07:25:52.395Z,86.19
2019-01-25T07:26:51.519Z,86.41
2019-01-25T07:27:51.477Z,87.15
2019-01-25T07:28:51.440Z,87.15
2019-01-25T07:29:51.446Z,87.15
2019-01-25T07:30:51.373Z,87.04
2019-01-25T07:31:51.331Z,87.71
2019-01-25T07:32:51.299Z,87.57
2019-01-25T07:33:51.249Z,87.46
2019-01-25T07:34:51.242Z,87.50
2019-01-25T07:35:51.207Z,87.61
2019-01-25T07:36:52.070Z,87.40
2019-01-25T07:37:51.094Z,88.03
2019-01-25T07:38:51.101Z,88.03
2019-01-25T07:39:51.026Z,88.03
2019-01-25T07:40:51.063Z,87.93
2019-01-25T07:41:50.931Z,88.56
2019-01-25T07:42:50.888Z,88.13
2019-01-25T07:43:50.870Z,88.03
2019-01-25T07:44:50.810Z,87.93
2019-01-25T07:45:50.859Z,88.10
2019-01-25T07:46:50.741Z,88.13
2019-01-25T07:47:50.693Z,88.10
2019-01-25T07:48:50.656Z,87.93
2019-01-25T07:49:50.614Z,87.88
2019-01-25T07:50:50.632Z,87.88
2019-01-25T07:51:50.553Z,88.10
2019-01-25T07:52:50.542Z,87.68
2019-01-25T07:53:50.456Z,87.68
2019-01-25T07:54:50.437Z,87.21
2019-01-25T07:55:50.384Z,87.32
2019-01-25T07:56:50.339Z,87.32
2019-01-25T07:57:50.355Z,87.74
2019-01-25T07:58:50.344Z,86.79
2019-01-25T07:59:50.251Z,86.90
2019-01-25T08:00:50.253Z,87.00
2019-01-25T08:01:50.185Z,86.16
2019-01-25T08:02:50.160Z,86.05
2019-01-25T08:03:50.096Z,86.16
2019-01-25T08:04:50.027Z,86.05
2019-01-25T08:05:49.988Z,85.94
2019-01-25T08:06:49.948Z,86.26
2019-01-25T08:07:49.955Z,85.41
2019-01-25T08:08:49.889Z,85.73
2019-01-25T08:09:49.839Z,85.63
2019-01-25T08:10:49.792Z,86.05
2019-01-25T08:11:49.807Z,85.69
2019-01-25T08:12:49.711Z,85.27
2019-01-25T08:13:49.715Z,85.73
2019-01-25T08:14:49.650Z,85.59
2019-01-25T08:15:49.647Z,85.63
2019-01-25T08:16:50.061Z,85.63
2019-01-25T08:17:49.579Z,85.52
2019-01-25T08:18:49.492Z,85.21
2019-01-25T08:19:49.442Z,85.59
2019-01-25T08:20:49.417Z,86.05
2019-01-25T08:21:49.412Z,85.27
2019-01-25T08:22:49.356Z,85.41
2019-01-25T08:23:49.283Z,85.59
2019-01-25T08:24:49.291Z,85.69
2019-01-25T08:25:49.209Z,85.38
2019-01-25T08:26:49.196Z,85.27
2019-01-25T08:27:49.218Z,85.80
2019-01-25T08:28:49.089Z,85.38
2019-01-25T08:29:49.097Z,85.38
2019-01-25T08:30:49.041Z,85.91
2019-01-25T08:31:49.223Z,85.27
2019-01-25T08:32:49.032Z,85.48
2019-01-25T08:33:48.909Z,85.59
2019-01-25T08:34:48.931Z,85.69
2019-01-25T08:35:48.816Z,85.59
2019-01-25T08:36:48.790Z,85.80
2019-01-25T08:37:48.775Z,85.44
2019-01-25T08:38:48.741Z,85.69
2019-01-25T08:39:48.661Z,85.66
2019-01-25T08:40:48.640Z,85.59
2019-01-25T08:41:48.605Z,85.44
2019-01-25T08:42:48.615Z,86.01
2019-01-25T08:43:48.658Z,85.80
2019-01-25T08:44:48.464Z,85.76
2019-01-25T08:45:49.519Z,85.06
2019-01-25T08:46:49.036Z,85.06
2019-01-25T08:47:48.415Z,84.95
2019-01-25T08:48:48.352Z,85.02
2019-01-25T08:49:48.299Z,85.38
2019-01-25T08:50:49.008Z,85.91
2019-01-25T08:51:48.268Z,85.86
2019-01-25T08:52:48.156Z,85.86
2019-01-25T08:53:49.905Z,85.34
2019-01-25T08:54:48.097Z,85.34
2019-01-25T08:55:48.566Z,85.02
2019-01-25T08:56:48.022Z,85.44
2019-01-25T08:57:48.505Z,85.44
2019-01-25T08:58:47.951Z,85.44
2019-01-25T08:59:47.966Z,85.34
2019-01-25T09:00:49.172Z,85.41
2019-01-25T09:01:47.826Z,85.34
2019-01-25T09:02:47.779Z,85.34
2019-01-25T09:03:47.735Z,85.66
2019-01-25T09:04:47.694Z,85.41
2019-01-25T09:05:47.727Z,85.09
2019-01-25T09:06:47.654Z,85.09
2019-01-25T09:07:47.577Z,84.98
2019-01-25T09:08:47.537Z,84.98
2019-01-25T09:09:47.495Z,84.77
2019-01-25T09:10:47.455Z,85.09
2019-01-25T09:11:47.471Z,85.41
2019-01-25T09:12:47.424Z,84.88
2019-01-25T09:13:47.344Z,84.24
2019-01-25T09:14:47.309Z,84.24
2019-01-25T09:15:47.262Z,84.45
2019-01-25T09:16:47.225Z,84.45
2019-01-25T09:17:47.246Z,83.72
2019-01-25T09:18:47.148Z,84.35
2019-01-25T09:19:47.156Z,83.78
2019-01-25T09:20:47.067Z,84.00
2019-01-25T09:21:47.033Z,83.53
2019-01-25T09:22:47.049Z,84.00
2019-01-25T09:23:46.953Z,83.33
2019-01-25T09:24:46.921Z,83.11
2019-01-25T09:25:46.882Z,82.59
2019-01-25T09:26:46.839Z,82.90
2019-01-25T09:27:46.843Z,82.44
2019-01-25T09:28:46.761Z,82.17
2019-01-25T09:29:47.092Z,82.17
2019-01-25T09:30:46.683Z,82.69
2019-01-25T09:31:46.656Z,81.85
2019-01-25T09:32:46.609Z,82.13
2019-01-25T09:33:46.568Z,82.02
2019-01-25T09:34:46.623Z,82.27
2019-01-25T09:35:46.492Z,82.06
2019-01-25T09:36:46.457Z,82.48
2019-01-25T09:37:46.413Z,82.34
2019-01-25T09:38:46.374Z,82.44
2019-01-25T09:39:46.413Z,81.81
2019-01-25T09:40:46.297Z,81.35
2019-01-25T09:41:46.257Z,81.70
2019-01-25T09:42:46.221Z,81.56
2019-01-25T09:43:46.187Z,81.00
2019-01-25T09:44:46.190Z,80.47
2019-01-25T09:45:46.103Z,80.54
2019-01-25T09:46:46.070Z,79.91
2019-01-25T09:47:46.023Z,79.60
2019-01-25T09:48:45.987Z,79.60
2019-01-25T09:49:45.998Z,78.64
2019-01-25T09:50:52.550Z,78.64
2019-01-25T09:51:45.884Z,78.12
2019-01-25T09:52:45.881Z,78.22
2019-01-25T09:53:45.800Z,78.19
2019-01-25T09:54:45.756Z,78.44
2019-01-25T09:55:45.792Z,77.91
2019-01-25T09:56:45.683Z,77.56
2019-01-25T09:57:45.642Z,77.80
2019-01-25T09:58:45.619Z,78.22
2019-01-25T09:59:45.568Z,78.02
2019-01-25T10:00:45.585Z,78.12
2019-01-25T10:01:45.556Z,78.44
2019-01-25T10:02:45.474Z,78.36
2019-01-25T10:03:45.414Z,78.44
2019-01-25T10:04:45.392Z,77.28
2019-01-25T10:05:45.355Z,78.44
2019-01-25T10:06:45.348Z,78.02
2019-01-25T10:07:45.346Z,77.70
2019-01-25T10:08:45.233Z,77.87
2019-01-25T10:09:45.186Z,78.30
2019-01-25T10:10:45.152Z,77.24
2019-01-25T10:11:45.157Z,76.61
2019-01-25T10:12:45.153Z,76.61
2019-01-25T10:13:45.040Z,76.57
2019-01-25T10:14:44.999Z,76.26
2019-01-25T10:15:44.962Z,76.47
2019-01-25T10:16:44.925Z,75.73
2019-01-25T10:17:45.050Z,75.00
2019-01-25T10:18:44.849Z,74.68
2019-01-25T10:19:53.036Z,75.21
2019-01-25T10:20:44.766Z,75.21
2019-01-25T10:21:44.733Z,75.07
2019-01-25T10:22:44.700Z,74.33
2019-01-25T10:23:44.670Z,73.77
2019-01-25T10:24:44.668Z,73.22
2019-01-25T10:25:44.588Z,73.32
2019-01-25T10:26:44.605Z,73.22
2019-01-25T10:27:44.511Z,72.58
2019-01-25T10:28:44.515Z,72.38
2019-01-25T10:29:44.482Z,73.11
2019-01-25T10:30:44.475Z,73.32
2019-01-25T10:31:44.354Z,72.69
2019-01-25T10:32:44.319Z,72.66
2019-01-25T10:33:44.286Z,73.32
2019-01-25T10:34:44.294Z,73.53
2019-01-25T10:35:44.207Z,72.55
2019-01-25T10:36:44.176Z,71.58
2019-01-25T10:37:44.144Z,71.92
2019-01-25T10:38:44.151Z,71.47
2019-01-25T10:39:44.069Z,71.19
2019-01-25T10:40:44.059Z,71.68
2019-01-25T10:41:44.030Z,71.05
2019-01-25T10:42:45.589Z,70.84
2019-01-25T10:43:43.964Z,71.26
2019-01-25T10:44:43.876Z,71.01
2019-01-25T10:45:43.890Z,70.63
2019-01-25T10:46:43.847Z,70.81
2019-01-25T10:47:43.772Z,69.23
2019-01-25T10:48:43.781Z,69.34
2019-01-25T10:49:44.530Z,68.95
2019-01-25T10:50:43.708Z,69.58
2019-01-25T10:51:43.633Z,69.90
2019-01-25T10:52:43.591Z,69.79
2019-01-25T10:53:43.545Z,70.31
2019-01-25T10:54:43.509Z,70.21
2019-01-25T10:55:43.516Z,69.68
2019-01-25T10:56:43.448Z,69.48
2019-01-25T10:57:43.404Z,70.42
2019-01-25T10:58:43.369Z,71.12
2019-01-25T10:59:43.503Z,71.15
2019-01-25T11:00:43.293Z,70.50
2019-01-25T11:01:43.257Z,69.62
2019-01-25T11:02:43.228Z,69.20
2019-01-25T11:03:43.189Z,68.89
2019-01-25T11:04:43.197Z,69.55
2019-01-25T11:05:43.162Z,69.90
2019-01-25T11:06:43.080Z,70.73
2019-01-25T11:07:43.036Z,70.63
2019-01-25T11:08:42.998Z,71.47
2019-01-25T11:09:43.004Z,72.41
2019-01-25T11:10:42.929Z,71.78
2019-01-25T11:11:42.952Z,71.68
2019-01-25T11:12:43.170Z,70.73
2019-01-25T11:13:42.820Z,70.84
2019-01-25T11:14:42.781Z,71.36
2019-01-25T11:15:42.744Z,71.86
2019-01-25T11:16:42.792Z,71.01
2019-01-25T11:17:43.433Z,70.67
2019-01-25T11:18:42.703Z,70.28
2019-01-25T11:19:42.623Z,70.18
2019-01-25T11:20:42.571Z,70.63
2019-01-25T11:21:42.613Z,71.68
2019-01-25T11:22:42.508Z,70.95
2019-01-25T11:23:42.480Z,70.84
2019-01-25T11:24:42.436Z,71.26
2019-01-25T11:25:42.411Z,70.73
2019-01-25T11:26:43.384Z,71.05
2019-01-25T11:27:42.351Z,71.40
2019-01-25T11:28:42.276Z,71.47
2019-01-25T11:29:42.234Z,71.68
2019-01-25T11:30:42.238Z,71.23
2019-01-25T11:31:42.167Z,70.63
2019-01-25T11:32:42.171Z,70.24
2019-01-25T11:33:42.088Z,70.98
2019-01-25T11:34:42.053Z,71.19
2019-01-25T11:35:42.057Z,71.78
2019-01-25T11:36:41.992Z,71.99
2019-01-25T11:37:42.079Z,72.63
2019-01-25T11:38:41.948Z,73.74
2019-01-25T11:39:41.869Z,73.43
2019-01-25T11:40:41.832Z,73.82
2019-01-25T11:41:41.793Z,73.39
2019-01-25T11:42:41.816Z,72.34
2019-01-25T11:43:41.770Z,72.21
2019-01-25T11:44:41.695Z,70.85
2019-01-25T11:45:41.652Z,70.95
2019-01-25T11:46:41.614Z,70.64
2019-01-25T11:47:41.581Z,70.64
2019-01-25T11:48:41.582Z,69.31
2019-01-25T11:49:41.509Z,69.73
2019-01-25T11:50:41.514Z,69.83
2019-01-25T11:51:41.456Z,69.62
2019-01-25T11:52:41.396Z,69.73
2019-01-25T11:53:41.406Z,70.04
2019-01-25T11:54:41.335Z,70.15
2019-01-25T11:55:41.292Z,70.25
2019-01-25T11:56:41.378Z,70.67
2019-01-25T11:57:41.280Z,70.98
2019-01-25T11:58:41.181Z,70.64
2019-01-25T11:59:41.150Z,70.53
2019-01-25T12:00:41.154Z,69.20
2019-01-25T12:01:41.071Z,69.62
2019-01-25T12:02:41.083Z,69.73
2019-01-25T12:03:41.001Z,69.20
2019-01-25T12:04:41.015Z,69.34
2019-01-25T12:05:40.929Z,69.65
2019-01-25T12:06:40.952Z,70.18
2019-01-25T12:07:40.899Z,70.70
2019-01-25T12:08:40.830Z,70.39
2019-01-25T12:09:40.979Z,70.88
2019-01-25T12:10:40.749Z,70.36
2019-01-25T12:11:43.925Z,70.36
2019-01-25T12:12:40.672Z,70.36
2019-01-25T12:13:40.715Z,69.17
2019-01-25T12:14:40.600Z,68.57
2019-01-25T12:15:40.567Z,68.47
2019-01-25T12:16:40.592Z,68.99
2019-01-25T12:17:40.491Z,68.82
2019-01-25T12:18:41.015Z,69.65
2019-01-25T12:19:40.422Z,69.65
2019-01-25T12:20:40.430Z,69.76
2019-01-25T12:21:40.351Z,70.28
2019-01-25T12:22:40.339Z,70.18
2019-01-25T12:23:40.275Z,69.62
2019-01-25T12:24:40.241Z,70.04
2019-01-25T12:25:40.252Z,70.15
2019-01-25T12:26:40.171Z,69.83
2019-01-25T12:27:40.129Z,69.73
2019-01-25T12:28:40.097Z,69.70
2019-01-25T12:29:40.101Z,69.70
2019-01-25T12:30:40.027Z,69.87
2019-01-25T12:31:39.987Z,68.72
2019-01-25T12:32:39.955Z,67.96
2019-01-25T12:33:39.914Z,67.75
2019-01-25T12:34:39.927Z,67.75
2019-01-25T12:35:39.892Z,66.67
2019-01-25T12:36:39.807Z,66.99
2019-01-25T12:37:39.772Z,66.46
2019-01-25T12:38:39.739Z,66.39
2019-01-25T12:39:39.699Z,66.94
2019-01-25T12:40:42.213Z,68.09
2019-01-25T12:41:39.629Z,68.72
2019-01-25T12:42:39.594Z,68.19
2019-01-25T12:43:39.598Z,68.51
2019-01-25T12:44:39.517Z,68.93
2019-01-25T12:45:39.499Z,67.88
2019-01-25T12:46:39.448Z,68.19
2019-01-25T12:47:39.455Z,68.41
2019-01-25T12:48:39.417Z,68.82
2019-01-25T12:49:39.342Z,68.96
2019-01-25T12:50:39.348Z,68.96
2019-01-25T12:51:39.272Z,69.38
2019-01-25T12:52:39.236Z,69.27
2019-01-25T12:53:39.204Z,69.07